sensor_id;sensor_type;location;lat;lon;timestamp;P1;durP1;ratioP1;P2;durP2;ratioP2
68942;SDS011;60852;52.190;4.422;2023-04-01T00:00:17;39.30;;;23.72;;
68942;SDS011;60852;52.190;4.422;2023-04-01T00:02:43;37.69;;;22.87;;
68942;SDS011;60852;52.190;4.422;2023-04-01T00:05:09;32.67;;;20.39;;
68942;SDS011;60852;52.190;4.422;2023-04-01T00:07:36;34.70;;;21.33;;
68942;SDS011;60852;52.190;4.422;2023-04-01T00:10:02;36.08;;;22.08;;
68942;SDS011;60852;52.190;4.422;2023-04-01T00:12:29;33.36;;;20.60;;
68942;SDS011;60852;52.190;4.422;2023-04-01T00:14:54;29.81;;;18.59;;
68942;SDS011;60852;52.190;4.422;2023-04-01T00:17:20;26.64;;;16.63;;
68942;SDS011;60852;52.190;4.422;2023-04-01T00:19:45;24.78;;;15.69;;
68942;SDS011;60852;52.190;4.422;2023-04-01T00:22:10;23.38;;;14.74;;
68942;SDS011;60852;52.190;4.422;2023-04-01T00:24:37;23.35;;;14.67;;
68942;SDS011;60852;52.190;4.422;2023-04-01T00:27:03;19.56;;;12.64;;
68942;SDS011;60852;52.190;4.422;2023-04-01T00:29:29;16.32;;;10.89;;
68942;SDS011;60852;52.190;4.422;2023-04-01T00:31:58;14.35;;;9.71;;
68942;SDS011;60852;52.190;4.422;2023-04-01T00:34:24;12.96;;;8.90;;
68942;SDS011;60852;52.190;4.422;2023-04-01T00:36:50;13.95;;;9.33;;
68942;SDS011;60852;52.190;4.422;2023-04-01T00:39:17;15.38;;;10.16;;
68942;SDS011;60852;52.190;4.422;2023-04-01T00:41:43;13.40;;;9.12;;
68942;SDS011;60852;52.190;4.422;2023-04-01T00:44:14;10.68;;;7.61;;
68942;SDS011;60852;52.190;4.422;2023-04-01T00:47:01;12.32;;;8.69;;
68942;SDS011;60852;52.190;4.422;2023-04-01T00:49:28;12.05;;;8.30;;
68942;SDS011;60852;52.190;4.422;2023-04-01T00:52:01;12.12;;;8.44;;
68942;SDS011;60852;52.190;4.422;2023-04-01T00:54:30;10.43;;;7.39;;
68942;SDS011;60852;52.190;4.422;2023-04-01T00:56:58;11.02;;;7.83;;
68942;SDS011;60852;52.190;4.422;2023-04-01T01:02:24;9.43;;;6.82;;
68942;SDS011;60852;52.190;4.422;2023-04-01T01:04:50;9.03;;;6.57;;
68942;SDS011;60852;52.190;4.422;2023-04-01T01:15:19;9.70;;;7.35;;
68942;SDS011;60852;52.190;4.422;2023-04-01T01:18:03;9.07;;;7.06;;
68942;SDS011;60852;52.190;4.422;2023-04-01T01:24:06;11.19;;;8.28;;
68942;SDS011;60852;52.190;4.422;2023-04-01T01:37:10;12.81;;;9.65;;
68942;SDS011;60852;52.190;4.422;2023-04-01T01:39:43;13.34;;;10.15;;
68942;SDS011;60852;52.190;4.422;2023-04-01T01:42:13;13.57;;;10.38;;
68942;SDS011;60852;52.190;4.422;2023-04-01T01:44:42;16.78;;;12.14;;
68942;SDS011;60852;52.190;4.422;2023-04-01T01:47:12;16.36;;;11.74;;
68942;SDS011;60852;52.190;4.422;2023-04-01T01:49:40;15.72;;;11.33;;
68942;SDS011;60852;52.190;4.422;2023-04-01T01:52:08;16.08;;;11.55;;
68942;SDS011;60852;52.190;4.422;2023-04-01T01:54:34;14.69;;;10.60;;
68942;SDS011;60852;52.190;4.422;2023-04-01T01:57:08;13.12;;;9.57;;
68942;SDS011;60852;52.190;4.422;2023-04-01T01:59:37;12.28;;;8.89;;
68942;SDS011;60852;52.190;4.422;2023-04-01T02:02:05;12.62;;;9.20;;
68942;SDS011;60852;52.190;4.422;2023-04-01T02:04:35;12.02;;;8.86;;
68942;SDS011;60852;52.190;4.422;2023-04-01T02:07:07;12.43;;;9.29;;
68942;SDS011;60852;52.190;4.422;2023-04-01T02:09:38;11.82;;;9.54;;
68942;SDS011;60852;52.190;4.422;2023-04-01T02:12:08;12.89;;;10.56;;
68942;SDS011;60852;52.190;4.422;2023-04-01T02:17:22;14.31;;;12.44;;
68942;SDS011;60852;52.190;4.422;2023-04-01T02:19:52;14.43;;;12.91;;
68942;SDS011;60852;52.190;4.422;2023-04-01T02:22:29;15.92;;;14.18;;
68942;SDS011;60852;52.190;4.422;2023-04-01T02:25:08;17.77;;;15.63;;
68942;SDS011;60852;52.190;4.422;2023-04-01T02:27:38;16.67;;;15.01;;
68942;SDS011;60852;52.190;4.422;2023-04-01T02:30:06;16.46;;;14.92;;
68942;SDS011;60852;52.190;4.422;2023-04-01T02:32:33;16.36;;;15.00;;
68942;SDS011;60852;52.190;4.422;2023-04-01T02:35:03;14.80;;;14.07;;
68942;SDS011;60852;52.190;4.422;2023-04-01T02:37:31;14.19;;;13.39;;
68942;SDS011;60852;52.190;4.422;2023-04-01T02:40:00;14.60;;;13.77;;
68942;SDS011;60852;52.190;4.422;2023-04-01T02:42:27;14.58;;;13.98;;
68942;SDS011;60852;52.190;4.422;2023-04-01T02:44:53;13.54;;;13.05;;
68942;SDS011;60852;52.190;4.422;2023-04-01T02:47:18;14.18;;;13.81;;
68942;SDS011;60852;52.190;4.422;2023-04-01T02:49:43;13.62;;;13.19;;
68942;SDS011;60852;52.190;4.422;2023-04-01T02:52:09;13.30;;;12.67;;
68942;SDS011;60852;52.190;4.422;2023-04-01T02:54:35;14.11;;;13.55;;
68942;SDS011;60852;52.190;4.422;2023-04-01T02:57:01;14.64;;;14.00;;
68942;SDS011;60852;52.190;4.422;2023-04-01T02:59:26;14.51;;;13.76;;
68942;SDS011;60852;52.190;4.422;2023-04-01T03:01:52;14.50;;;13.72;;
68942;SDS011;60852;52.190;4.422;2023-04-01T03:04:17;15.56;;;14.56;;
68942;SDS011;60852;52.190;4.422;2023-04-01T03:06:43;17.37;;;15.72;;
68942;SDS011;60852;52.190;4.422;2023-04-01T03:09:08;16.86;;;15.58;;
68942;SDS011;60852;52.190;4.422;2023-04-01T03:11:34;16.04;;;14.74;;
68942;SDS011;60852;52.190;4.422;2023-04-01T03:13:59;15.63;;;13.97;;
68942;SDS011;60852;52.190;4.422;2023-04-01T03:16:25;15.69;;;14.15;;
68942;SDS011;60852;52.190;4.422;2023-04-01T03:18:50;15.54;;;14.15;;
68942;SDS011;60852;52.190;4.422;2023-04-01T03:21:22;14.91;;;13.68;;
68942;SDS011;60852;52.190;4.422;2023-04-01T03:23:49;13.99;;;12.99;;
68942;SDS011;60852;52.190;4.422;2023-04-01T03:26:15;13.99;;;13.09;;
68942;SDS011;60852;52.190;4.422;2023-04-01T03:28:41;13.48;;;12.83;;
68942;SDS011;60852;52.190;4.422;2023-04-01T03:31:06;15.07;;;13.93;;
68942;SDS011;60852;52.190;4.422;2023-04-01T03:33:32;14.46;;;13.57;;
68942;SDS011;60852;52.190;4.422;2023-04-01T03:35:57;14.79;;;13.98;;
68942;SDS011;60852;52.190;4.422;2023-04-01T03:38:23;15.74;;;14.78;;
68942;SDS011;60852;52.190;4.422;2023-04-01T03:40:49;16.76;;;15.81;;
68942;SDS011;60852;52.190;4.422;2023-04-01T03:43:14;18.06;;;16.68;;
68942;SDS011;60852;52.190;4.422;2023-04-01T03:45:45;17.07;;;15.98;;
68942;SDS011;60852;52.190;4.422;2023-04-01T03:48:11;17.60;;;16.55;;
68942;SDS011;60852;52.190;4.422;2023-04-01T03:50:36;16.34;;;15.62;;
68942;SDS011;60852;52.190;4.422;2023-04-01T03:53:02;16.92;;;15.80;;
68942;SDS011;60852;52.190;4.422;2023-04-01T03:55:27;17.24;;;16.15;;
68942;SDS011;60852;52.190;4.422;2023-04-01T03:57:52;15.70;;;15.03;;
68942;SDS011;60852;52.190;4.422;2023-04-01T04:00:18;13.85;;;13.23;;
68942;SDS011;60852;52.190;4.422;2023-04-01T04:02:44;13.10;;;12.56;;
68942;SDS011;60852;52.190;4.422;2023-04-01T04:05:09;12.40;;;12.01;;
68942;SDS011;60852;52.190;4.422;2023-04-01T04:07:35;12.24;;;11.94;;
68942;SDS011;60852;52.190;4.422;2023-04-01T04:10:01;12.88;;;12.60;;
68942;SDS011;60852;52.190;4.422;2023-04-01T04:12:27;13.00;;;12.76;;
68942;SDS011;60852;52.190;4.422;2023-04-01T04:14:52;13.50;;;13.22;;
68942;SDS011;60852;52.190;4.422;2023-04-01T04:17:17;14.07;;;13.80;;
68942;SDS011;60852;52.190;4.422;2023-04-01T04:19:43;14.33;;;13.89;;
68942;SDS011;60852;52.190;4.422;2023-04-01T04:22:09;14.59;;;14.09;;
68942;SDS011;60852;52.190;4.422;2023-04-01T04:24:34;14.68;;;14.17;;
68942;SDS011;60852;52.190;4.422;2023-04-01T04:27:00;15.51;;;15.09;;
68942;SDS011;60852;52.190;4.422;2023-04-01T04:29:26;15.27;;;14.74;;
68942;SDS011;60852;52.190;4.422;2023-04-01T04:31:52;14.75;;;14.21;;
68942;SDS011;60852;52.190;4.422;2023-04-01T04:34:17;15.45;;;14.76;;
68942;SDS011;60852;52.190;4.422;2023-04-01T04:36:43;14.78;;;14.13;;
68942;SDS011;60852;52.190;4.422;2023-04-01T04:39:09;15.07;;;14.44;;
68942;SDS011;60852;52.190;4.422;2023-04-01T04:41:36;15.50;;;14.50;;
68942;SDS011;60852;52.190;4.422;2023-04-01T04:44:03;16.13;;;15.09;;
68942;SDS011;60852;52.190;4.422;2023-04-01T04:46:28;15.50;;;14.37;;
68942;SDS011;60852;52.190;4.422;2023-04-01T04:48:54;16.69;;;15.14;;
68942;SDS011;60852;52.190;4.422;2023-04-01T04:51:20;17.25;;;15.46;;
68942;SDS011;60852;52.190;4.422;2023-04-01T04:53:47;18.18;;;16.20;;
68942;SDS011;60852;52.190;4.422;2023-04-01T04:56:17;18.24;;;16.34;;
68942;SDS011;60852;52.190;4.422;2023-04-01T04:58:43;17.13;;;15.46;;
68942;SDS011;60852;52.190;4.422;2023-04-01T05:01:10;16.74;;;15.44;;
68942;SDS011;60852;52.190;4.422;2023-04-01T05:03:38;16.48;;;15.11;;
68942;SDS011;60852;52.190;4.422;2023-04-01T05:06:05;15.01;;;13.81;;
68942;SDS011;60852;52.190;4.422;2023-04-01T05:08:32;15.64;;;14.65;;
68942;SDS011;60852;52.190;4.422;2023-04-01T05:11:00;14.79;;;14.06;;
68942;SDS011;60852;52.190;4.422;2023-04-01T05:13:27;14.58;;;13.78;;
68942;SDS011;60852;52.190;4.422;2023-04-01T05:15:54;14.57;;;13.82;;
68942;SDS011;60852;52.190;4.422;2023-04-01T05:18:20;14.84;;;14.08;;
68942;SDS011;60852;52.190;4.422;2023-04-01T05:20:47;15.04;;;14.08;;
68942;SDS011;60852;52.190;4.422;2023-04-01T05:23:14;14.15;;;13.19;;
68942;SDS011;60852;52.190;4.422;2023-04-01T05:25:39;13.61;;;12.75;;
68942;SDS011;60852;52.190;4.422;2023-04-01T05:28:05;13.91;;;12.98;;
68942;SDS011;60852;52.190;4.422;2023-04-01T05:30:30;13.72;;;12.81;;
68942;SDS011;60852;52.190;4.422;2023-04-01T05:32:56;13.86;;;13.25;;
68942;SDS011;60852;52.190;4.422;2023-04-01T05:35:21;13.09;;;12.66;;
68942;SDS011;60852;52.190;4.422;2023-04-01T05:37:47;13.15;;;12.64;;
68942;SDS011;60852;52.190;4.422;2023-04-01T05:40:12;13.58;;;13.19;;
68942;SDS011;60852;52.190;4.422;2023-04-01T05:42:37;14.52;;;14.25;;
68942;SDS011;60852;52.190;4.422;2023-04-01T05:45:03;15.85;;;15.40;;
68942;SDS011;60852;52.190;4.422;2023-04-01T05:47:29;14.83;;;14.27;;
68942;SDS011;60852;52.190;4.422;2023-04-01T05:49:54;14.99;;;14.29;;
68942;SDS011;60852;52.190;4.422;2023-04-01T05:52:20;16.15;;;14.91;;
68942;SDS011;60852;52.190;4.422;2023-04-01T05:54:45;16.54;;;15.54;;
68942;SDS011;60852;52.190;4.422;2023-04-01T05:57:11;16.03;;;15.21;;
68942;SDS011;60852;52.190;4.422;2023-04-01T05:59:36;14.84;;;13.90;;
68942;SDS011;60852;52.190;4.422;2023-04-01T06:02:02;15.27;;;14.28;;
68942;SDS011;60852;52.190;4.422;2023-04-01T06:04:28;14.21;;;13.57;;
68942;SDS011;60852;52.190;4.422;2023-04-01T06:07:05;13.26;;;12.82;;
68942;SDS011;60852;52.190;4.422;2023-04-01T06:09:35;13.61;;;13.17;;
68942;SDS011;60852;52.190;4.422;2023-04-01T06:31:03;12.18;;;11.85;;
68942;SDS011;60852;52.190;4.422;2023-04-01T06:34:00;11.65;;;11.44;;
68942;SDS011;60852;52.190;4.422;2023-04-01T06:39:25;12.42;;;12.27;;
68942;SDS011;60852;52.190;4.422;2023-04-01T06:58:19;14.43;;;13.48;;
68942;SDS011;60852;52.190;4.422;2023-04-01T07:00:50;15.36;;;13.95;;
68942;SDS011;60852;52.190;4.422;2023-04-01T07:03:23;15.59;;;13.98;;
68942;SDS011;60852;52.190;4.422;2023-04-01T07:05:58;15.38;;;13.47;;
68942;SDS011;60852;52.190;4.422;2023-04-01T07:08:29;15.98;;;14.26;;
68942;SDS011;60852;52.190;4.422;2023-04-01T07:11:01;14.51;;;13.22;;
68942;SDS011;60852;52.190;4.422;2023-04-01T07:13:39;13.48;;;12.66;;
68942;SDS011;60852;52.190;4.422;2023-04-01T07:18:41;14.25;;;13.17;;
68942;SDS011;60852;52.190;4.422;2023-04-01T07:21:25;14.17;;;13.46;;
68942;SDS011;60852;52.190;4.422;2023-04-01T07:23:56;13.68;;;13.14;;
68942;SDS011;60852;52.190;4.422;2023-04-01T07:26:30;13.86;;;13.36;;
68942;SDS011;60852;52.190;4.422;2023-04-01T07:28:55;13.76;;;13.14;;
68942;SDS011;60852;52.190;4.422;2023-04-01T07:36:42;15.80;;;14.90;;
68942;SDS011;60852;52.190;4.422;2023-04-01T07:45:29;16.70;;;15.87;;
68942;SDS011;60852;52.190;4.422;2023-04-01T07:51:01;15.16;;;14.82;;
68942;SDS011;60852;52.190;4.422;2023-04-01T07:53:36;14.57;;;14.10;;
68942;SDS011;60852;52.190;4.422;2023-04-01T07:56:12;14.37;;;13.90;;
68942;SDS011;60852;52.190;4.422;2023-04-01T07:58:52;14.76;;;14.24;;
68942;SDS011;60852;52.190;4.422;2023-04-01T08:01:36;15.87;;;15.25;;
68942;SDS011;60852;52.190;4.422;2023-04-01T08:09:26;17.18;;;16.30;;
68942;SDS011;60852;52.190;4.422;2023-04-01T08:12:38;16.68;;;15.79;;
68942;SDS011;60852;52.190;4.422;2023-04-01T08:15:50;16.38;;;15.40;;
68942;SDS011;60852;52.190;4.422;2023-04-01T08:21:14;17.07;;;16.21;;
68942;SDS011;60852;52.190;4.422;2023-04-01T08:23:47;16.10;;;15.18;;
68942;SDS011;60852;52.190;4.422;2023-04-01T08:29:06;16.35;;;15.53;;
68942;SDS011;60852;52.190;4.422;2023-04-01T08:34:25;15.58;;;14.88;;
68942;SDS011;60852;52.190;4.422;2023-04-01T08:37:02;15.23;;;14.37;;
68942;SDS011;60852;52.190;4.422;2023-04-01T08:39:43;17.59;;;16.11;;
68942;SDS011;60852;52.190;4.422;2023-04-01T08:42:27;17.15;;;15.81;;
68942;SDS011;60852;52.190;4.422;2023-04-01T08:45:09;17.70;;;16.03;;
68942;SDS011;60852;52.190;4.422;2023-04-01T09:01:58;17.65;;;15.54;;
68942;SDS011;60852;52.190;4.422;2023-04-01T09:13:13;14.27;;;13.33;;
68942;SDS011;60852;52.190;4.422;2023-04-01T09:16:13;13.76;;;13.09;;
68942;SDS011;60852;52.190;4.422;2023-04-01T09:30:02;15.16;;;14.26;;
68942;SDS011;60852;52.190;4.422;2023-04-01T09:35:31;19.12;;;17.61;;
68942;SDS011;60852;52.190;4.422;2023-04-01T09:46:48;22.55;;;20.07;;
68942;SDS011;60852;52.190;4.422;2023-04-01T10:04:07;27.82;;;23.31;;
68942;SDS011;60852;52.190;4.422;2023-04-01T10:06:51;23.34;;;20.45;;
68942;SDS011;60852;52.190;4.422;2023-04-01T10:10:02;23.53;;;20.58;;
68942;SDS011;60852;52.190;4.422;2023-04-01T10:20:39;23.15;;;19.34;;
68942;SDS011;60852;52.190;4.422;2023-04-01T10:23:21;21.31;;;18.30;;
68942;SDS011;60852;52.190;4.422;2023-04-01T10:32:07;19.90;;;17.34;;
68942;SDS011;60852;52.190;4.422;2023-04-01T10:41:12;19.27;;;17.74;;
68942;SDS011;60852;52.190;4.422;2023-04-01T11:12:06;17.04;;;15.66;;
68942;SDS011;60852;52.190;4.422;2023-04-01T11:14:55;15.29;;;14.26;;
68942;SDS011;60852;52.190;4.422;2023-04-01T11:23:22;14.53;;;13.71;;
68942;SDS011;60852;52.190;4.422;2023-04-01T11:29:01;13.75;;;12.85;;
68942;SDS011;60852;52.190;4.422;2023-04-01T11:35:01;13.79;;;12.83;;
68942;SDS011;60852;52.190;4.422;2023-04-01T11:37:53;12.25;;;11.54;;
68942;SDS011;60852;52.190;4.422;2023-04-01T11:46:44;13.89;;;13.16;;
68942;SDS011;60852;52.190;4.422;2023-04-01T11:49:36;15.23;;;14.41;;
68942;SDS011;60852;52.190;4.422;2023-04-01T11:55:19;20.21;;;18.91;;
68942;SDS011;60852;52.190;4.422;2023-04-01T12:14:30;15.03;;;13.87;;
68942;SDS011;60852;52.190;4.422;2023-04-01T12:17:03;13.95;;;12.73;;
68942;SDS011;60852;52.190;4.422;2023-04-01T12:27:31;13.31;;;11.60;;
68942;SDS011;60852;52.190;4.422;2023-04-01T12:30:18;13.10;;;11.57;;
68942;SDS011;60852;52.190;4.422;2023-04-01T12:39:36;12.09;;;10.58;;
68942;SDS011;60852;52.190;4.422;2023-04-01T12:47:53;9.31;;;8.25;;
68942;SDS011;60852;52.190;4.422;2023-04-01T12:50:32;8.27;;;7.47;;
68942;SDS011;60852;52.190;4.422;2023-04-01T12:56:08;7.42;;;6.40;;
68942;SDS011;60852;52.190;4.422;2023-04-01T13:10:10;6.30;;;5.76;;
68942;SDS011;60852;52.190;4.422;2023-04-01T13:13:00;6.46;;;5.90;;
68942;SDS011;60852;52.190;4.422;2023-04-01T13:16:11;6.49;;;6.07;;
68942;SDS011;60852;52.190;4.422;2023-04-01T13:24:23;7.16;;;6.55;;
68942;SDS011;60852;52.190;4.422;2023-04-01T13:29:40;7.53;;;6.54;;
68942;SDS011;60852;52.190;4.422;2023-04-01T13:43:45;7.34;;;5.99;;
68942;SDS011;60852;52.190;4.422;2023-04-01T13:46:25;7.45;;;6.08;;
68942;SDS011;60852;52.190;4.422;2023-04-01T13:55:10;7.70;;;6.51;;
68942;SDS011;60852;52.190;4.422;2023-04-01T14:00:38;7.29;;;5.89;;
68942;SDS011;60852;52.190;4.422;2023-04-01T14:03:12;8.66;;;6.82;;
68942;SDS011;60852;52.190;4.422;2023-04-01T14:06:16;8.92;;;6.97;;
68942;SDS011;60852;52.190;4.422;2023-04-01T14:11:33;9.49;;;7.43;;
68942;SDS011;60852;52.190;4.422;2023-04-01T14:14:26;9.21;;;7.18;;
68942;SDS011;60852;52.190;4.422;2023-04-01T14:20:03;8.54;;;7.03;;
68942;SDS011;60852;52.190;4.422;2023-04-01T14:32:16;9.00;;;7.47;;
68942;SDS011;60852;52.190;4.422;2023-04-01T14:36:58;8.80;;;7.16;;
68942;SDS011;60852;52.190;4.422;2023-04-01T14:40:12;8.41;;;7.06;;
68942;SDS011;60852;52.190;4.422;2023-04-01T14:48:25;8.11;;;6.87;;
68942;SDS011;60852;52.190;4.422;2023-04-01T14:51:18;8.17;;;7.04;;
68942;SDS011;60852;52.190;4.422;2023-04-01T14:54:08;7.60;;;6.79;;
68942;SDS011;60852;52.190;4.422;2023-04-01T14:56:49;7.57;;;6.73;;
68942;SDS011;60852;52.190;4.422;2023-04-01T14:59:27;7.44;;;6.55;;
68942;SDS011;60852;52.190;4.422;2023-04-01T15:01:56;7.32;;;6.48;;
68942;SDS011;60852;52.190;4.422;2023-04-01T15:23:37;6.65;;;5.99;;
68942;SDS011;60852;52.190;4.422;2023-04-01T15:26:23;7.49;;;6.50;;
68942;SDS011;60852;52.190;4.422;2023-04-01T15:31:47;7.47;;;6.72;;
68942;SDS011;60852;52.190;4.422;2023-04-01T15:34:43;7.46;;;6.84;;
68942;SDS011;60852;52.190;4.422;2023-04-01T15:42:35;6.94;;;6.46;;
68942;SDS011;60852;52.190;4.422;2023-04-01T15:47:39;7.05;;;6.63;;
68942;SDS011;60852;52.190;4.422;2023-04-01T15:50:26;6.89;;;6.51;;
68942;SDS011;60852;52.190;4.422;2023-04-01T15:56:11;7.16;;;6.67;;
68942;SDS011;60852;52.190;4.422;2023-04-01T15:58:35;7.59;;;6.99;;
68942;SDS011;60852;52.190;4.422;2023-04-01T16:18:47;7.07;;;6.86;;
68942;SDS011;60852;52.190;4.422;2023-04-01T16:21:33;7.06;;;6.86;;
68942;SDS011;60852;52.190;4.422;2023-04-01T16:24:05;6.44;;;6.32;;
68942;SDS011;60852;52.190;4.422;2023-04-01T16:27:08;7.14;;;6.98;;
68942;SDS011;60852;52.190;4.422;2023-04-01T16:33:13;7.59;;;7.59;;
68942;SDS011;60852;52.190;4.422;2023-04-01T16:35:45;8.29;;;8.29;;
68942;SDS011;60852;52.190;4.422;2023-04-01T16:41:17;8.48;;;8.48;;
68942;SDS011;60852;52.190;4.422;2023-04-01T16:43:53;8.39;;;8.39;;
68942;SDS011;60852;52.190;4.422;2023-04-01T16:46:34;8.84;;;8.84;;
68942;SDS011;60852;52.190;4.422;2023-04-01T16:51:46;7.93;;;7.92;;
68942;SDS011;60852;52.190;4.422;2023-04-01T16:59:56;7.23;;;7.23;;
68942;SDS011;60852;52.190;4.422;2023-04-01T17:02:36;7.49;;;7.49;;
68942;SDS011;60852;52.190;4.422;2023-04-01T17:05:08;8.03;;;8.02;;
68942;SDS011;60852;52.190;4.422;2023-04-01T17:18:23;8.37;;;8.37;;
68942;SDS011;60852;52.190;4.422;2023-04-01T17:34:12;7.57;;;7.57;;
68942;SDS011;60852;52.190;4.422;2023-04-01T17:36:58;7.61;;;7.61;;
68942;SDS011;60852;52.190;4.422;2023-04-01T17:45:28;6.93;;;6.93;;
68942;SDS011;60852;52.190;4.422;2023-04-01T18:19:50;6.64;;;6.64;;
68942;SDS011;60852;52.190;4.422;2023-04-01T18:25:33;6.05;;;6.05;;
68942;SDS011;60852;52.190;4.422;2023-04-01T18:30:51;7.47;;;7.47;;
68942;SDS011;60852;52.190;4.422;2023-04-01T18:33:29;7.07;;;7.07;;
68942;SDS011;60852;52.190;4.422;2023-04-01T18:36:13;6.45;;;6.45;;
68942;SDS011;60852;52.190;4.422;2023-04-01T18:39:07;6.42;;;6.42;;
68942;SDS011;60852;52.190;4.422;2023-04-01T18:41:59;6.74;;;6.74;;
68942;SDS011;60852;52.190;4.422;2023-04-01T18:47:16;7.09;;;7.09;;
68942;SDS011;60852;52.190;4.422;2023-04-01T18:53:24;7.77;;;7.77;;
68942;SDS011;60852;52.190;4.422;2023-04-01T18:56:06;7.96;;;7.96;;
68942;SDS011;60852;52.190;4.422;2023-04-01T18:58:49;7.92;;;7.92;;
68942;SDS011;60852;52.190;4.422;2023-04-01T19:01:31;7.90;;;7.90;;
68942;SDS011;60852;52.190;4.422;2023-04-01T19:07:00;8.13;;;8.13;;
68942;SDS011;60852;52.190;4.422;2023-04-01T19:09:46;8.42;;;8.42;;
68942;SDS011;60852;52.190;4.422;2023-04-01T19:20:56;8.62;;;8.62;;
68942;SDS011;60852;52.190;4.422;2023-04-01T19:26:11;8.36;;;8.36;;
68942;SDS011;60852;52.190;4.422;2023-04-01T19:53:00;11.46;;;11.46;;
68942;SDS011;60852;52.190;4.422;2023-04-01T19:55:49;10.76;;;10.76;;
68942;SDS011;60852;52.190;4.422;2023-04-01T19:59:27;11.56;;;11.56;;
68942;SDS011;60852;52.190;4.422;2023-04-01T20:01:51;11.53;;;11.53;;
68942;SDS011;60852;52.190;4.422;2023-04-01T20:04:28;11.80;;;11.80;;
68942;SDS011;60852;52.190;4.422;2023-04-01T20:07:20;11.32;;;11.31;;
68942;SDS011;60852;52.190;4.422;2023-04-01T20:09:58;11.74;;;11.74;;
68942;SDS011;60852;52.190;4.422;2023-04-01T20:15:26;12.03;;;12.03;;
68942;SDS011;60852;52.190;4.422;2023-04-01T20:18:01;11.50;;;11.50;;
68942;SDS011;60852;52.190;4.422;2023-04-01T20:20:35;11.68;;;11.68;;
68942;SDS011;60852;52.190;4.422;2023-04-01T20:23:05;12.02;;;12.02;;
68942;SDS011;60852;52.190;4.422;2023-04-01T20:26:06;11.60;;;11.60;;
68942;SDS011;60852;52.190;4.422;2023-04-01T20:28:43;10.80;;;10.80;;
68942;SDS011;60852;52.190;4.422;2023-04-01T20:34:07;10.73;;;10.73;;
68942;SDS011;60852;52.190;4.422;2023-04-01T20:37:01;10.73;;;10.73;;
68942;SDS011;60852;52.190;4.422;2023-04-01T20:39:58;11.34;;;11.34;;
68942;SDS011;60852;52.190;4.422;2023-04-01T20:45:25;11.89;;;11.89;;
68942;SDS011;60852;52.190;4.422;2023-04-01T20:51:23;12.60;;;12.60;;
68942;SDS011;60852;52.190;4.422;2023-04-01T20:57:06;13.62;;;13.60;;
68942;SDS011;60852;52.190;4.422;2023-04-01T20:59:37;13.90;;;13.88;;
68942;SDS011;60852;52.190;4.422;2023-04-01T21:02:36;13.00;;;13.00;;
68942;SDS011;60852;52.190;4.422;2023-04-01T21:05:47;12.91;;;12.90;;
68942;SDS011;60852;52.190;4.422;2023-04-01T21:08:31;12.89;;;12.89;;
68942;SDS011;60852;52.190;4.422;2023-04-01T21:34:07;14.36;;;14.36;;
68942;SDS011;60852;52.190;4.422;2023-04-01T21:37:00;13.56;;;13.56;;
68942;SDS011;60852;52.190;4.422;2023-04-01T21:40:14;13.94;;;13.93;;
68942;SDS011;60852;52.190;4.422;2023-04-01T21:42:55;14.29;;;14.29;;
68942;SDS011;60852;52.190;4.422;2023-04-01T21:45:39;13.44;;;13.41;;
68942;SDS011;60852;52.190;4.422;2023-04-01T21:48:42;13.80;;;13.79;;
68942;SDS011;60852;52.190;4.422;2023-04-01T21:57:18;14.27;;;14.26;;
68942;SDS011;60852;52.190;4.422;2023-04-01T22:03:00;15.07;;;15.03;;
68942;SDS011;60852;52.190;4.422;2023-04-01T22:05:53;13.71;;;13.68;;
68942;SDS011;60852;52.190;4.422;2023-04-01T22:11:53;14.94;;;14.77;;
68942;SDS011;60852;52.190;4.422;2023-04-01T22:16:54;14.73;;;14.73;;
68942;SDS011;60852;52.190;4.422;2023-04-01T22:19:28;15.54;;;15.54;;
68942;SDS011;60852;52.190;4.422;2023-04-01T22:22:07;15.25;;;15.25;;
68942;SDS011;60852;52.190;4.422;2023-04-01T22:32:42;17.07;;;17.07;;
68942;SDS011;60852;52.190;4.422;2023-04-01T22:43:35;16.39;;;16.39;;
68942;SDS011;60852;52.190;4.422;2023-04-01T22:48:49;16.05;;;16.04;;
68942;SDS011;60852;52.190;4.422;2023-04-01T22:54:14;17.38;;;17.38;;
68942;SDS011;60852;52.190;4.422;2023-04-01T22:56:53;16.67;;;16.63;;
68942;SDS011;60852;52.190;4.422;2023-04-01T23:04:43;15.75;;;15.66;;
68942;SDS011;60852;52.190;4.422;2023-04-01T23:09:50;15.65;;;15.63;;
68942;SDS011;60852;52.190;4.422;2023-04-01T23:12:21;15.26;;;15.18;;
68942;SDS011;60852;52.190;4.422;2023-04-01T23:14:52;15.15;;;15.12;;
68942;SDS011;60852;52.190;4.422;2023-04-01T23:17:31;15.25;;;15.21;;
68942;SDS011;60852;52.190;4.422;2023-04-01T23:20:10;15.76;;;15.76;;
68942;SDS011;60852;52.190;4.422;2023-04-01T23:30:58;16.10;;;16.10;;
68942;SDS011;60852;52.190;4.422;2023-04-01T23:33:26;15.93;;;15.87;;
68942;SDS011;60852;52.190;4.422;2023-04-01T23:35:55;15.87;;;15.84;;
68942;SDS011;60852;52.190;4.422;2023-04-01T23:38:34;16.65;;;16.53;;
68942;SDS011;60852;52.190;4.422;2023-04-01T23:41:03;16.75;;;16.75;;
68942;SDS011;60852;52.190;4.422;2023-04-01T23:43:31;16.52;;;16.47;;
68942;SDS011;60852;52.190;4.422;2023-04-01T23:46:03;16.82;;;16.76;;
68942;SDS011;60852;52.190;4.422;2023-04-01T23:48:36;16.56;;;16.56;;
68942;SDS011;60852;52.190;4.422;2023-04-01T23:54:38;16.20;;;16.15;;
68942;SDS011;60852;52.190;4.422;2023-04-01T23:56:51;15.93;;;15.93;;
68942;SDS011;60852;52.190;4.422;2023-04-01T23:59:28;17.04;;;16.89;;
